createdAt,value
2017-08-18T00:02:24.349Z,19.80
2017-08-18T00:04:52.710Z,19.80
2017-08-18T00:07:20.251Z,19.80
2017-08-18T00:09:47.816Z,19.80
2017-08-18T00:12:15.327Z,19.80
2017-08-18T00:14:43.686Z,19.70
2017-08-18T00:17:11.142Z,19.70
2017-08-18T00:19:38.687Z,19.70
2017-08-18T00:22:06.547Z,19.70
2017-08-18T00:24:34.009Z,19.70
2017-08-18T00:27:01.484Z,19.60
2017-08-18T00:29:29.077Z,19.60
2017-08-18T00:31:57.685Z,19.60
2017-08-18T00:34:25.294Z,19.60
2017-08-18T00:36:52.748Z,19.60
2017-08-18T00:39:20.232Z,19.50
2017-08-18T00:41:47.787Z,19.60
2017-08-18T00:44:15.323Z,19.60
2017-08-18T00:46:42.786Z,19.60
2017-08-18T00:49:10.311Z,19.50
2017-08-18T00:51:37.814Z,19.50
2017-08-18T00:54:06.406Z,19.40
2017-08-18T00:56:33.885Z,19.40
2017-08-18T00:59:01.346Z,19.40
2017-08-18T01:01:28.799Z,19.40
2017-08-18T01:03:56.490Z,19.40
2017-08-18T01:06:23.954Z,19.40
2017-08-18T01:08:51.435Z,19.30
2017-08-18T01:11:18.918Z,19.30
2017-08-18T01:13:46.373Z,19.30
2017-08-18T01:16:13.849Z,19.30
2017-08-18T01:18:41.451Z,19.20
2017-08-18T01:21:08.912Z,19.20
2017-08-18T01:23:36.364Z,19.30
2017-08-18T01:26:03.972Z,19.20
2017-08-18T01:28:31.430Z,19.20
2017-08-18T01:30:59.044Z,19.20
2017-08-18T01:33:26.539Z,19.20
2017-08-18T01:35:54.054Z,19.10
2017-08-18T01:38:21.516Z,19.10
2017-08-18T01:40:49.017Z,19.10
2017-08-18T01:43:16.495Z,19.10
2017-08-18T01:45:43.944Z,19.10
2017-08-18T01:48:11.451Z,19.10
2017-08-18T01:50:38.898Z,19.00
2017-08-18T01:53:06.389Z,19.10
2017-08-18T01:55:33.858Z,19.10
2017-08-18T01:58:01.316Z,19.00
2017-08-18T02:00:28.810Z,19.10
2017-08-18T02:02:56.337Z,19.10
2017-08-18T02:05:23.791Z,19.00
2017-08-18T02:07:51.254Z,19.00
2017-08-18T02:10:19.018Z,19.00
2017-08-18T02:12:46.470Z,19.00
2017-08-18T02:15:13.940Z,19.00
2017-08-18T02:17:41.419Z,19.00
2017-08-18T02:20:09.002Z,19.00
2017-08-18T02:22:36.543Z,18.90
2017-08-18T02:25:04.087Z,18.90
2017-08-18T02:27:31.547Z,18.90
2017-08-18T02:29:59.018Z,18.80
2017-08-18T02:32:26.490Z,18.80
2017-08-18T02:34:54.075Z,18.80
2017-08-18T02:37:21.542Z,18.80
2017-08-18T02:39:49.028Z,18.80
2017-08-18T02:42:16.505Z,18.70
2017-08-18T02:44:43.954Z,18.70
2017-08-18T02:47:11.482Z,18.70
2017-08-18T02:49:38.961Z,18.80
2017-08-18T02:52:06.417Z,18.80
2017-08-18T02:54:33.979Z,18.90
2017-08-18T02:57:01.537Z,19.00
2017-08-18T02:59:29.077Z,19.10
2017-08-18T03:01:56.618Z,19.10
2017-08-18T03:04:24.063Z,19.20
2017-08-18T03:06:51.568Z,19.20
2017-08-18T03:09:19.034Z,19.30
2017-08-18T03:11:46.528Z,19.30
2017-08-18T03:14:14.015Z,19.30
2017-08-18T03:16:41.514Z,19.40
2017-08-18T03:19:09.083Z,19.40
2017-08-18T03:21:36.699Z,19.50
2017-08-18T03:24:04.271Z,19.50
2017-08-18T03:26:31.739Z,19.60
2017-08-18T03:28:59.192Z,19.60
2017-08-18T03:31:26.660Z,19.60
2017-08-18T03:33:54.465Z,19.60
2017-08-18T03:36:21.929Z,19.60
2017-08-18T03:38:49.590Z,19.60
2017-08-18T03:41:17.185Z,19.70
2017-08-18T03:43:44.623Z,19.70
2017-08-18T03:46:12.568Z,19.60
2017-08-18T03:48:40.087Z,19.60
2017-08-18T03:51:07.585Z,19.50
2017-08-18T03:53:35.096Z,19.30
2017-08-18T03:56:02.649Z,19.20
2017-08-18T03:58:30.183Z,19.20
2017-08-18T04:00:57.731Z,19.20
2017-08-18T04:03:25.280Z,19.20
2017-08-18T04:05:52.771Z,19.10
2017-08-18T04:08:20.283Z,19.00
2017-08-18T04:10:47.787Z,19.00
2017-08-18T04:13:15.243Z,19.00
2017-08-18T04:15:42.704Z,18.90
2017-08-18T04:18:10.245Z,18.90
2017-08-18T04:20:37.713Z,18.80
2017-08-18T04:23:05.482Z,18.70
2017-08-18T04:25:33.020Z,18.80
2017-08-18T04:28:00.499Z,18.80
2017-08-18T04:30:27.986Z,18.70
2017-08-18T04:32:55.451Z,18.70
2017-08-18T04:35:23.206Z,18.60
2017-08-18T04:37:51.445Z,18.70
2017-08-18T04:40:19.115Z,18.60
2017-08-18T04:42:46.571Z,18.70
2017-08-18T04:45:14.265Z,18.60
2017-08-18T04:47:41.702Z,18.60
2017-08-18T04:50:09.158Z,18.70
2017-08-18T04:52:36.632Z,18.60
2017-08-18T04:55:04.164Z,18.50
2017-08-18T04:57:31.612Z,18.40
2017-08-18T04:59:59.086Z,18.40
2017-08-18T05:02:26.727Z,18.40
2017-08-18T05:04:54.239Z,18.30
2017-08-18T05:07:26.871Z,18.30
2017-08-18T05:09:54.423Z,18.30
2017-08-18T05:12:21.961Z,18.20
2017-08-18T05:14:49.502Z,18.10
2017-08-18T05:17:16.954Z,18.10
2017-08-18T05:19:44.425Z,18.00
2017-08-18T05:22:11.920Z,18.00
2017-08-18T05:24:39.545Z,18.00
2017-08-18T05:27:07.291Z,17.90
2017-08-18T05:29:34.803Z,17.90
2017-08-18T05:32:02.422Z,17.90
2017-08-18T05:34:30.028Z,17.90
2017-08-18T05:36:57.559Z,17.90
2017-08-18T05:39:25.034Z,17.90
2017-08-18T05:41:52.905Z,18.00
2017-08-18T05:44:20.400Z,18.00
2017-08-18T05:46:47.863Z,18.00
2017-08-18T05:49:15.345Z,18.10
2017-08-18T05:51:42.858Z,18.10
2017-08-18T05:54:10.341Z,18.10
2017-08-18T05:56:37.788Z,18.00
2017-08-18T05:59:05.799Z,18.00
2017-08-18T06:01:33.294Z,18.00
2017-08-18T06:04:00.818Z,18.00
2017-08-18T06:06:28.343Z,18.00
2017-08-18T06:08:57.343Z,18.00
2017-08-18T06:11:24.967Z,18.10
2017-08-18T06:13:52.539Z,18.10
2017-08-18T06:16:20.148Z,17.90
2017-08-18T06:18:47.630Z,17.90
2017-08-18T06:21:15.228Z,17.90
2017-08-18T06:23:42.721Z,17.90
2017-08-18T06:26:20.833Z,17.80
2017-08-18T06:28:48.336Z,17.80
2017-08-18T06:31:15.783Z,17.90
2017-08-18T06:33:43.256Z,17.90
2017-08-18T06:36:10.928Z,17.90
2017-08-18T06:38:38.436Z,17.90
2017-08-18T06:41:06.048Z,18.00
2017-08-18T06:43:33.764Z,18.10
2017-08-18T06:46:01.429Z,18.20
2017-08-18T06:48:28.906Z,18.20
2017-08-18T06:50:56.486Z,18.30
2017-08-18T06:53:23.987Z,18.30
2017-08-18T06:55:51.528Z,18.40
2017-08-18T06:58:19.002Z,18.50
2017-08-18T07:00:46.486Z,18.50
2017-08-18T07:03:13.996Z,18.50
2017-08-18T07:05:41.564Z,18.50
2017-08-18T07:08:09.044Z,18.60
2017-08-18T07:10:36.561Z,18.60
2017-08-18T07:13:04.060Z,18.70
2017-08-18T07:15:31.510Z,18.70
2017-08-18T07:17:59.093Z,18.70
2017-08-18T07:20:26.683Z,18.60
2017-08-18T07:22:54.211Z,18.60
2017-08-18T07:25:22.635Z,18.60
2017-08-18T07:27:50.187Z,18.60
2017-08-18T07:30:17.808Z,18.70
2017-08-18T07:32:45.559Z,18.80
2017-08-18T07:35:13.035Z,18.90
2017-08-18T07:37:40.570Z,18.90
2017-08-18T07:40:08.186Z,18.90
2017-08-18T07:42:35.666Z,18.90
2017-08-18T07:45:03.816Z,19.00
2017-08-18T07:47:31.423Z,19.20
2017-08-18T07:49:59.063Z,19.40
2017-08-18T07:52:26.550Z,19.60
2017-08-18T07:54:54.048Z,19.80
2017-08-18T07:57:21.591Z,19.80
2017-08-18T07:59:49.835Z,20.00
2017-08-18T08:02:17.467Z,20.00
2017-08-18T08:04:44.938Z,20.00
2017-08-18T08:07:12.481Z,20.10
2017-08-18T08:09:40.175Z,20.30
2017-08-18T08:12:07.724Z,20.50
2017-08-18T08:14:35.291Z,20.60
2017-08-18T08:17:02.777Z,20.60
2017-08-18T08:19:30.233Z,20.60
2017-08-18T08:21:57.811Z,20.90
2017-08-18T08:24:25.490Z,20.80
2017-08-18T08:26:53.071Z,20.90
2017-08-18T08:29:20.650Z,21.20
2017-08-18T08:31:48.195Z,21.30
2017-08-18T08:34:15.647Z,21.40
2017-08-18T08:36:43.104Z,21.50
2017-08-18T08:39:10.681Z,21.50
2017-08-18T08:41:38.183Z,21.80
2017-08-18T08:44:05.756Z,21.90
2017-08-18T08:46:33.598Z,22.00
2017-08-18T08:49:01.313Z,22.10
2017-08-18T08:51:28.907Z,22.10
2017-08-18T08:53:56.456Z,22.10
2017-08-18T08:56:24.002Z,22.20
2017-08-18T08:58:51.504Z,21.80
2017-08-18T09:01:19.177Z,21.70
2017-08-18T09:03:46.672Z,21.90
2017-08-18T09:06:14.242Z,22.00
2017-08-18T09:08:41.949Z,22.20
2017-08-18T09:11:09.399Z,22.30
2017-08-18T09:13:37.089Z,22.30
2017-08-18T09:16:04.662Z,22.50
2017-08-18T09:18:32.127Z,22.80
2017-08-18T09:20:59.748Z,23.20
2017-08-18T09:23:27.608Z,23.50
2017-08-18T09:25:55.063Z,23.80
2017-08-18T09:28:22.586Z,24.00
2017-08-18T09:30:50.130Z,24.00
2017-08-18T09:33:17.917Z,24.40
2017-08-18T09:35:45.459Z,24.80
2017-08-18T09:38:13.034Z,25.00
2017-08-18T09:40:40.574Z,24.60
2017-08-18T09:43:08.082Z,24.30
2017-08-18T09:45:35.605Z,24.10
2017-08-18T09:48:15.121Z,23.80
2017-08-18T09:50:54.471Z,23.50
2017-08-18T09:53:33.650Z,23.60
2017-08-18T09:56:12.804Z,23.50
2017-08-18T09:58:52.071Z,23.30
2017-08-18T10:01:19.599Z,23.60
2017-08-18T10:03:47.154Z,23.70
2017-08-18T10:06:14.716Z,23.60
2017-08-18T10:08:42.333Z,23.70
2017-08-18T10:11:09.768Z,23.80
2017-08-18T10:13:37.577Z,23.80
2017-08-18T10:16:05.093Z,23.70
2017-08-18T10:18:32.563Z,23.50
2017-08-18T10:36:43.352Z,24.80
2017-08-18T10:39:10.878Z,24.90
2017-08-18T10:41:38.504Z,25.40
2017-08-18T10:44:05.962Z,25.10
2017-08-18T10:46:33.428Z,24.60
2017-08-18T10:49:01.592Z,24.20
2017-08-18T10:51:29.063Z,23.70
2017-08-18T10:53:56.770Z,23.30
2017-08-18T10:56:24.278Z,23.10
2017-08-18T10:58:51.829Z,22.90
2017-08-18T11:01:20.119Z,22.70
2017-08-18T11:03:47.600Z,22.70
2017-08-18T11:06:15.088Z,22.60
2017-08-18T11:08:42.757Z,22.60
2017-08-18T11:11:10.338Z,22.70
2017-08-18T11:13:37.795Z,22.80
2017-08-18T11:16:05.276Z,22.90
2017-08-18T11:18:32.738Z,22.80
2017-08-18T11:21:00.267Z,22.90
2017-08-18T11:23:27.792Z,22.90
2017-08-18T11:25:55.692Z,23.10
2017-08-18T11:28:23.310Z,23.30
2017-08-18T11:30:50.816Z,23.40
2017-08-18T11:33:19.068Z,23.50
2017-08-18T11:35:46.567Z,23.60
2017-08-18T11:38:14.229Z,23.40
2017-08-18T11:40:41.725Z,23.40
2017-08-18T11:43:09.489Z,23.10
2017-08-18T11:45:36.970Z,22.90
2017-08-18T11:48:04.516Z,22.70
2017-08-18T11:50:32.124Z,22.60
2017-08-18T11:52:59.595Z,22.50
2017-08-18T11:55:27.082Z,22.40
2017-08-18T11:57:54.583Z,22.40
2017-08-18T12:00:22.106Z,22.20
2017-08-18T12:02:49.812Z,22.20
2017-08-18T12:05:17.432Z,22.10
2017-08-18T12:07:44.933Z,22.20
2017-08-18T12:10:12.551Z,22.30
2017-08-18T12:12:40.050Z,22.50
2017-08-18T12:15:07.784Z,22.80
2017-08-18T12:17:35.331Z,23.00
2017-08-18T12:20:02.789Z,23.30
2017-08-18T12:22:30.300Z,23.40
2017-08-18T12:24:57.857Z,23.80
2017-08-18T12:27:25.442Z,23.90
2017-08-18T12:29:53.027Z,23.60
2017-08-18T12:32:20.542Z,23.30
2017-08-18T12:34:48.104Z,23.20
2017-08-18T12:37:15.781Z,23.10
2017-08-18T12:39:43.314Z,23.00
2017-08-18T12:42:11.702Z,22.70
2017-08-18T12:44:39.255Z,22.70
2017-08-18T12:47:06.736Z,22.80
2017-08-18T12:49:34.187Z,22.90
2017-08-18T12:52:01.781Z,22.60
2017-08-18T12:54:29.305Z,22.40
2017-08-18T12:56:56.844Z,22.30
2017-08-18T12:59:24.320Z,22.30
2017-08-18T13:01:51.830Z,22.20
2017-08-18T13:04:19.415Z,22.20
2017-08-18T13:06:47.709Z,22.20
2017-08-18T13:09:15.516Z,22.20
2017-08-18T13:11:43.028Z,22.40
2017-08-18T13:14:10.599Z,22.60
2017-08-18T13:16:38.247Z,22.90
2017-08-18T13:19:05.819Z,23.20
2017-08-18T13:21:33.373Z,23.50
2017-08-18T13:24:01.120Z,23.50
2017-08-18T13:26:28.674Z,23.50
2017-08-18T13:28:56.216Z,23.70
2017-08-18T13:31:23.712Z,23.90
2017-08-18T13:33:51.767Z,24.00
2017-08-18T13:36:19.334Z,24.00
2017-08-18T13:38:46.802Z,24.00
2017-08-18T13:41:14.383Z,24.10
2017-08-18T13:43:42.027Z,23.90
2017-08-18T13:46:10.626Z,23.40
2017-08-18T13:48:38.147Z,23.50
2017-08-18T13:51:05.608Z,23.70
2017-08-18T13:53:33.380Z,23.70
2017-08-18T13:56:00.846Z,23.50
2017-08-18T13:58:28.345Z,23.60
2017-08-18T14:00:55.813Z,23.50
2017-08-18T14:03:23.335Z,23.50
2017-08-18T14:05:50.898Z,23.30
2017-08-18T14:08:18.386Z,23.10
2017-08-18T14:10:45.891Z,23.10
2017-08-18T14:13:14.223Z,23.00
2017-08-18T14:15:41.734Z,23.00
2017-08-18T14:18:09.344Z,23.20
2017-08-18T14:20:36.841Z,23.30
2017-08-18T14:23:04.414Z,23.30
2017-08-18T14:25:37.624Z,23.10
2017-08-18T14:28:05.173Z,23.00
2017-08-18T14:30:32.744Z,23.00
2017-08-18T14:33:00.281Z,22.80
2017-08-18T14:35:27.785Z,22.50
2017-08-18T14:37:55.282Z,22.50
2017-08-18T14:40:23.524Z,22.50
2017-08-18T14:42:51.016Z,22.30
2017-08-18T14:45:18.650Z,22.00
2017-08-18T14:50:23.030Z,21.90
2017-08-18T14:52:51.743Z,21.90
2017-08-18T14:55:19.650Z,21.80
2017-08-18T14:57:47.481Z,21.70
2017-08-18T15:00:14.955Z,21.60
2017-08-18T15:02:42.517Z,21.70
2017-08-18T15:05:10.052Z,21.60
2017-08-18T15:07:37.589Z,21.60
2017-08-18T15:10:05.169Z,21.50
2017-08-18T15:12:32.647Z,21.50
2017-08-18T15:15:00.159Z,21.40
2017-08-18T15:17:27.743Z,21.40
2017-08-18T15:19:55.227Z,21.40
2017-08-18T15:22:22.735Z,21.30
2017-08-18T15:24:51.007Z,21.30
2017-08-18T15:27:18.527Z,21.30
2017-08-18T15:29:46.031Z,21.20
2017-08-18T15:32:13.607Z,21.10
2017-08-18T15:34:41.855Z,21.20
2017-08-18T15:37:10.572Z,21.20
2017-08-18T15:39:38.048Z,20.90
2017-08-18T15:42:05.536Z,20.50
2017-08-18T15:44:34.248Z,20.00
2017-08-18T15:47:01.750Z,20.00
2017-08-18T15:49:29.246Z,20.10
2017-08-18T15:51:56.863Z,20.00
2017-08-18T15:54:24.341Z,20.00
2017-08-18T15:56:51.910Z,19.90
2017-08-18T15:59:19.423Z,19.80
2017-08-18T16:01:46.939Z,19.80
2017-08-18T16:04:14.483Z,19.80
2017-08-18T16:06:41.993Z,19.80
2017-08-18T16:09:09.484Z,19.80
2017-08-18T16:11:37.026Z,19.50
2017-08-18T16:14:04.800Z,19.40
2017-08-18T16:16:32.523Z,19.40
2017-08-18T16:19:00.005Z,19.40
2017-08-18T16:21:28.329Z,19.30
2017-08-18T16:23:55.870Z,19.30
2017-08-18T16:26:23.417Z,19.20
2017-08-18T16:28:50.911Z,19.30
2017-08-18T16:31:18.487Z,19.30
2017-08-18T16:33:45.950Z,19.30
2017-08-18T16:36:13.551Z,19.40
2017-08-18T16:38:40.996Z,19.50
2017-08-18T16:41:09.291Z,19.50
2017-08-18T16:43:36.936Z,19.50
2017-08-18T16:46:04.565Z,19.60
2017-08-18T16:48:32.198Z,19.50
2017-08-18T16:50:59.716Z,19.50
2017-08-18T16:53:27.555Z,19.60
2017-08-18T16:55:55.116Z,19.60
2017-08-18T16:58:23.673Z,19.70
2017-08-18T17:00:51.161Z,19.70
2017-08-18T17:03:19.120Z,19.60
2017-08-18T17:05:46.580Z,19.60
2017-08-18T17:08:14.087Z,19.60
2017-08-18T17:10:41.606Z,19.80
2017-08-18T17:13:09.347Z,19.80
2017-08-18T17:15:37.035Z,19.80
2017-08-18T17:18:04.561Z,19.70
2017-08-18T17:20:32.039Z,19.60
2017-08-18T17:22:59.548Z,19.70
2017-08-18T17:25:27.035Z,19.70
2017-08-18T17:27:54.571Z,19.70
2017-08-18T17:30:22.112Z,19.60
2017-08-18T17:32:49.579Z,19.80
2017-08-18T17:35:18.088Z,19.80
2017-08-18T17:37:45.552Z,19.80
2017-08-18T17:40:13.171Z,19.90
2017-08-18T17:42:40.716Z,19.80
2017-08-18T17:45:08.239Z,19.80
2017-08-18T17:47:35.809Z,19.70
2017-08-18T17:50:03.670Z,19.60
2017-08-18T17:52:31.141Z,19.70
2017-08-18T17:54:58.691Z,19.70
2017-08-18T17:57:26.291Z,19.70
2017-08-18T17:59:53.818Z,19.70
2017-08-18T18:02:21.462Z,19.60
2017-08-18T18:04:48.907Z,19.70
2017-08-18T18:07:16.630Z,19.70
2017-08-18T18:09:44.142Z,19.60
2017-08-18T18:12:11.645Z,19.60
2017-08-18T18:14:39.244Z,19.50
2017-08-18T18:17:06.816Z,19.40
2017-08-18T18:19:34.554Z,19.30
2017-08-18T18:22:02.033Z,19.30
2017-08-18T18:24:29.493Z,19.40
2017-08-18T18:26:57.445Z,19.30
2017-08-18T18:29:25.068Z,19.30
2017-08-18T18:31:52.611Z,19.30
2017-08-18T18:34:20.221Z,19.20
2017-08-18T18:36:47.755Z,19.10
2017-08-18T18:39:15.256Z,19.00
2017-08-18T18:41:42.754Z,19.00
2017-08-18T18:44:11.306Z,18.90
2017-08-18T18:46:38.877Z,18.90
2017-08-18T18:49:06.408Z,18.90
2017-08-18T18:51:33.964Z,18.90
2017-08-18T18:54:02.173Z,18.90
2017-08-18T18:56:30.014Z,18.90
2017-08-18T18:58:57.528Z,18.90
2017-08-18T19:01:25.918Z,18.90
2017-08-18T19:03:53.730Z,18.80
2017-08-18T19:06:21.235Z,18.80
2017-08-18T19:08:48.722Z,18.80
2017-08-18T19:11:16.361Z,18.80
2017-08-18T19:13:44.412Z,18.90
2017-08-18T19:16:12.287Z,18.80
2017-08-18T19:18:39.791Z,18.80
2017-08-18T19:21:08.919Z,18.80
2017-08-18T19:23:36.380Z,18.80
2017-08-18T19:26:04.013Z,18.90
2017-08-18T19:28:31.575Z,18.80
2017-08-18T19:30:59.065Z,18.80
2017-08-18T19:33:26.889Z,18.80
2017-08-18T19:35:54.411Z,18.80
2017-08-18T19:38:22.017Z,18.80
2017-08-18T19:40:49.611Z,18.80
2017-08-18T19:43:17.189Z,18.70
2017-08-18T19:45:44.799Z,18.80
2017-08-18T19:48:12.339Z,18.80
2017-08-18T19:50:39.821Z,18.90
2017-08-18T19:53:07.769Z,18.90
2017-08-18T19:55:36.215Z,18.80
2017-08-18T19:58:03.911Z,18.80
2017-08-18T20:00:31.433Z,18.70
2017-08-18T20:02:59.028Z,18.80
2017-08-18T20:05:26.485Z,18.80
2017-08-18T20:07:54.004Z,18.70
2017-08-18T20:10:21.780Z,18.70
2017-08-18T20:12:49.269Z,18.70
2017-08-18T20:15:16.808Z,18.60
2017-08-18T20:17:44.364Z,18.60
2017-08-18T20:20:11.871Z,18.50
2017-08-18T20:22:39.372Z,18.50
2017-08-18T20:25:06.934Z,18.50
2017-08-18T20:27:34.436Z,18.50
2017-08-18T20:30:01.981Z,18.60
2017-08-18T20:32:29.788Z,18.60
2017-08-18T20:34:57.254Z,18.60
2017-08-18T20:37:24.768Z,18.40
2017-08-18T20:39:52.295Z,17.70
2017-08-18T20:42:20.705Z,16.40
2017-08-18T20:44:48.235Z,16.30
2017-08-18T20:47:15.723Z,16.10
2017-08-18T20:49:43.254Z,15.80
2017-08-18T20:52:10.966Z,15.60
2017-08-18T20:54:38.471Z,15.50
2017-08-18T20:57:06.203Z,15.50
2017-08-18T20:59:33.792Z,15.40
2017-08-18T21:02:01.794Z,15.40
2017-08-18T21:04:29.426Z,15.50
2017-08-18T21:06:57.510Z,15.50
2017-08-18T21:09:25.172Z,15.60
2017-08-18T21:11:53.169Z,15.70
2017-08-18T21:14:20.804Z,15.80
2017-08-18T21:16:48.594Z,15.80
2017-08-18T21:19:16.153Z,15.80
2017-08-18T21:21:43.661Z,15.80
2017-08-18T21:24:11.337Z,15.80
2017-08-18T21:26:39.196Z,15.90
2017-08-18T21:29:06.700Z,15.90
2017-08-18T21:31:34.366Z,16.00
2017-08-18T21:34:01.872Z,16.00
2017-08-18T21:36:29.383Z,16.00
2017-08-18T21:38:56.971Z,16.00
2017-08-18T21:41:24.465Z,16.00
2017-08-18T21:43:51.907Z,16.10
2017-08-18T21:46:19.417Z,16.10
2017-08-18T21:48:46.925Z,16.10
2017-08-18T21:51:14.432Z,16.10
2017-08-18T21:53:42.002Z,16.10
2017-08-18T21:56:10.427Z,16.10
2017-08-18T21:58:37.982Z,16.00
2017-08-18T22:01:05.520Z,16.00
2017-08-18T22:03:32.995Z,15.90
2017-08-18T22:06:00.511Z,15.90
2017-08-18T22:08:28.056Z,15.90
2017-08-18T22:10:55.487Z,15.80
2017-08-18T22:13:22.988Z,15.70
2017-08-18T22:15:50.458Z,15.60
2017-08-18T22:18:18.155Z,15.60
2017-08-18T22:20:45.803Z,15.60
2017-08-18T22:23:13.358Z,15.60
2017-08-18T22:25:40.937Z,15.60
2017-08-18T22:28:08.416Z,15.60
2017-08-18T22:30:35.979Z,15.50
2017-08-18T22:33:03.909Z,15.60
2017-08-18T22:35:31.381Z,15.70
2017-08-18T22:37:58.843Z,15.60
2017-08-18T22:40:26.402Z,15.60
2017-08-18T22:42:53.916Z,15.60
2017-08-18T22:45:21.417Z,15.60
2017-08-18T22:47:49.025Z,15.60
2017-08-18T22:50:16.583Z,15.60
2017-08-18T22:52:44.110Z,15.60
2017-08-18T22:55:11.730Z,15.60
2017-08-18T22:57:39.520Z,15.60
2017-08-18T23:00:07.955Z,15.70
2017-08-18T23:02:35.419Z,15.60
2017-08-18T23:05:03.032Z,15.60
2017-08-18T23:07:30.595Z,15.50
2017-08-18T23:09:58.210Z,15.50
2017-08-18T23:12:25.831Z,15.50
2017-08-18T23:14:53.400Z,15.50
2017-08-18T23:17:20.924Z,15.40
2017-08-18T23:19:48.404Z,15.40
2017-08-18T23:22:16.041Z,15.40
2017-08-18T23:24:43.525Z,15.30
2017-08-18T23:27:11.082Z,15.30
2017-08-18T23:29:38.597Z,15.30
2017-08-18T23:32:06.162Z,15.30
2017-08-18T23:34:33.639Z,15.30
2017-08-18T23:37:01.208Z,15.20
2017-08-18T23:39:28.778Z,15.20
2017-08-18T23:41:56.393Z,15.30
2017-08-18T23:44:23.949Z,15.20
2017-08-18T23:46:51.438Z,15.20
2017-08-18T23:49:19.021Z,15.20
2017-08-18T23:51:46.783Z,15.10
2017-08-18T23:54:14.294Z,15.00
2017-08-18T23:56:41.749Z,15.00
2017-08-18T23:59:09.269Z,15.00
